sensor_id;sensor_type;location;lat;lon;timestamp;P1;durP1;ratioP1;P2;durP2;ratioP2
16270;SDS011;8243;49.048;8.396;2022-09-09T00:01:20;5.27;;;2.77;;
16270;SDS011;8243;49.048;8.396;2022-09-09T00:15:00;5.50;;;2.63;;
16270;SDS011;8243;49.048;8.396;2022-09-09T00:20:20;6.03;;;3.00;;
16270;SDS011;8243;49.048;8.396;2022-09-09T00:25:37;5.27;;;3.17;;
16270;SDS011;8243;49.048;8.396;2022-09-09T00:28:18;7.50;;;2.83;;
16270;SDS011;8243;49.048;8.396;2022-09-09T00:30:46;5.67;;;2.80;;
16270;SDS011;8243;49.048;8.396;2022-09-09T00:33:13;7.60;;;2.93;;
16270;SDS011;8243;49.048;8.396;2022-09-09T00:35:56;4.33;;;2.50;;
16270;SDS011;8243;49.048;8.396;2022-09-09T00:41:02;4.93;;;2.40;;
16270;SDS011;8243;49.048;8.396;2022-09-09T00:43:37;6.40;;;2.87;;
16270;SDS011;8243;49.048;8.396;2022-09-09T00:46:26;4.00;;;2.40;;
16270;SDS011;8243;49.048;8.396;2022-09-09T00:49:13;5.27;;;2.20;;
16270;SDS011;8243;49.048;8.396;2022-09-09T00:59:50;5.70;;;2.30;;
16270;SDS011;8243;49.048;8.396;2022-09-09T01:02:29;8.30;;;2.40;;
16270;SDS011;8243;49.048;8.396;2022-09-09T01:05:07;4.33;;;2.00;;
16270;SDS011;8243;49.048;8.396;2022-09-09T01:07:38;5.03;;;2.00;;
16270;SDS011;8243;49.048;8.396;2022-09-09T01:10:16;5.33;;;1.80;;
16270;SDS011;8243;49.048;8.396;2022-09-09T01:12:52;5.20;;;2.20;;
16270;SDS011;8243;49.048;8.396;2022-09-09T01:15:27;5.47;;;1.90;;
16270;SDS011;8243;49.048;8.396;2022-09-09T01:18:00;3.47;;;1.57;;
16270;SDS011;8243;49.048;8.396;2022-09-09T01:20:38;6.07;;;2.10;;
16270;SDS011;8243;49.048;8.396;2022-09-09T01:23:38;5.47;;;2.03;;
16270;SDS011;8243;49.048;8.396;2022-09-09T01:26:15;4.97;;;1.90;;
16270;SDS011;8243;49.048;8.396;2022-09-09T01:28:48;5.57;;;1.90;;
16270;SDS011;8243;49.048;8.396;2022-09-09T01:31:28;5.03;;;1.80;;
16270;SDS011;8243;49.048;8.396;2022-09-09T01:34:00;3.37;;;1.50;;
16270;SDS011;8243;49.048;8.396;2022-09-09T01:36:29;5.10;;;1.60;;
16270;SDS011;8243;49.048;8.396;2022-09-09T01:39:03;4.53;;;1.80;;
16270;SDS011;8243;49.048;8.396;2022-09-09T01:41:29;5.57;;;1.77;;
16270;SDS011;8243;49.048;8.396;2022-09-09T01:43:54;3.33;;;1.60;;
16270;SDS011;8243;49.048;8.396;2022-09-09T01:46:22;6.83;;;1.60;;
16270;SDS011;8243;49.048;8.396;2022-09-09T01:48:48;5.63;;;1.60;;
16270;SDS011;8243;49.048;8.396;2022-09-09T01:51:18;7.10;;;1.60;;
16270;SDS011;8243;49.048;8.396;2022-09-09T01:53:44;3.73;;;1.60;;
16270;SDS011;8243;49.048;8.396;2022-09-09T01:56:20;5.00;;;1.60;;
16270;SDS011;8243;49.048;8.396;2022-09-09T02:04:29;3.87;;;1.70;;
16270;SDS011;8243;49.048;8.396;2022-09-09T02:06:57;1.90;;;1.37;;
16270;SDS011;8243;49.048;8.396;2022-09-09T02:09:25;4.10;;;1.70;;
16270;SDS011;8243;49.048;8.396;2022-09-09T02:11:57;4.77;;;1.80;;
16270;SDS011;8243;49.048;8.396;2022-09-09T02:14:34;6.97;;;2.00;;
16270;SDS011;8243;49.048;8.396;2022-09-09T02:17:09;3.17;;;1.57;;
16270;SDS011;8243;49.048;8.396;2022-09-09T02:19:45;5.60;;;1.70;;
16270;SDS011;8243;49.048;8.396;2022-09-09T02:22:20;3.50;;;1.47;;
16270;SDS011;8243;49.048;8.396;2022-09-09T02:24:48;5.77;;;1.80;;
16270;SDS011;8243;49.048;8.396;2022-09-09T02:27:18;4.67;;;1.57;;
16270;SDS011;8243;49.048;8.396;2022-09-09T02:29:46;4.10;;;1.60;;
16270;SDS011;8243;49.048;8.396;2022-09-09T02:32:15;4.00;;;1.43;;
16270;SDS011;8243;49.048;8.396;2022-09-09T02:34:45;3.70;;;1.60;;
16270;SDS011;8243;49.048;8.396;2022-09-09T02:37:15;1.83;;;1.50;;
16270;SDS011;8243;49.048;8.396;2022-09-09T02:39:45;2.07;;;1.37;;
16270;SDS011;8243;49.048;8.396;2022-09-09T02:42:11;2.70;;;1.50;;
16270;SDS011;8243;49.048;8.396;2022-09-09T02:44:40;3.50;;;1.43;;
16270;SDS011;8243;49.048;8.396;2022-09-09T02:52:30;3.77;;;1.70;;
16270;SDS011;8243;49.048;8.396;2022-09-09T02:55:04;3.23;;;1.30;;
16270;SDS011;8243;49.048;8.396;2022-09-09T02:57:37;2.57;;;1.40;;
16270;SDS011;8243;49.048;8.396;2022-09-09T03:00:04;4.10;;;1.57;;
16270;SDS011;8243;49.048;8.396;2022-09-09T03:02:30;3.37;;;1.60;;
16270;SDS011;8243;49.048;8.396;2022-09-09T03:04:55;4.30;;;1.50;;
16270;SDS011;8243;49.048;8.396;2022-09-09T03:07:21;3.87;;;1.40;;
16270;SDS011;8243;49.048;8.396;2022-09-09T03:09:47;2.63;;;1.20;;
16270;SDS011;8243;49.048;8.396;2022-09-09T03:12:13;8.07;;;1.73;;
16270;SDS011;8243;49.048;8.396;2022-09-09T03:14:38;4.07;;;1.50;;
16270;SDS011;8243;49.048;8.396;2022-09-09T03:17:05;6.57;;;1.60;;
16270;SDS011;8243;49.048;8.396;2022-09-09T03:19:31;3.23;;;1.50;;
16270;SDS011;8243;49.048;8.396;2022-09-09T03:21:57;3.13;;;1.50;;
16270;SDS011;8243;49.048;8.396;2022-09-09T03:24:23;5.87;;;1.53;;
16270;SDS011;8243;49.048;8.396;2022-09-09T03:26:49;4.73;;;1.77;;
16270;SDS011;8243;49.048;8.396;2022-09-09T03:29:15;1.90;;;1.37;;
16270;SDS011;8243;49.048;8.396;2022-09-09T03:31:42;2.40;;;1.50;;
16270;SDS011;8243;49.048;8.396;2022-09-09T03:34:08;3.23;;;1.50;;
16270;SDS011;8243;49.048;8.396;2022-09-09T03:36:34;2.77;;;1.50;;
16270;SDS011;8243;49.048;8.396;2022-09-09T03:39:00;2.50;;;1.40;;
16270;SDS011;8243;49.048;8.396;2022-09-09T03:41:27;2.93;;;1.57;;
16270;SDS011;8243;49.048;8.396;2022-09-09T03:43:53;3.13;;;1.40;;
16270;SDS011;8243;49.048;8.396;2022-09-09T03:46:20;3.43;;;1.80;;
16270;SDS011;8243;49.048;8.396;2022-09-09T03:48:46;3.70;;;1.67;;
16270;SDS011;8243;49.048;8.396;2022-09-09T03:51:12;2.53;;;1.40;;
16270;SDS011;8243;49.048;8.396;2022-09-09T03:53:38;2.97;;;1.47;;
16270;SDS011;8243;49.048;8.396;2022-09-09T03:56:05;2.57;;;1.60;;
16270;SDS011;8243;49.048;8.396;2022-09-09T03:58:31;3.80;;;1.60;;
16270;SDS011;8243;49.048;8.396;2022-09-09T04:03:25;2.83;;;1.80;;
16270;SDS011;8243;49.048;8.396;2022-09-09T04:05:51;6.07;;;1.70;;
16270;SDS011;8243;49.048;8.396;2022-09-09T04:08:17;4.10;;;1.87;;
16270;SDS011;8243;49.048;8.396;2022-09-09T04:10:44;6.03;;;1.97;;
16270;SDS011;8243;49.048;8.396;2022-09-09T04:13:11;3.63;;;2.17;;
16270;SDS011;8243;49.048;8.396;2022-09-09T04:15:40;5.40;;;2.33;;
16270;SDS011;8243;49.048;8.396;2022-09-09T04:18:11;3.70;;;1.77;;
16270;SDS011;8243;49.048;8.396;2022-09-09T04:20:38;5.07;;;1.80;;
16270;SDS011;8243;49.048;8.396;2022-09-09T04:23:08;2.77;;;2.07;;
16270;SDS011;8243;49.048;8.396;2022-09-09T04:25:33;4.23;;;1.93;;
16270;SDS011;8243;49.048;8.396;2022-09-09T04:27:59;3.53;;;1.80;;
16270;SDS011;8243;49.048;8.396;2022-09-09T04:30:29;3.97;;;1.70;;
16270;SDS011;8243;49.048;8.396;2022-09-09T04:32:54;3.53;;;1.67;;
16270;SDS011;8243;49.048;8.396;2022-09-09T04:35:21;3.97;;;1.67;;
16270;SDS011;8243;49.048;8.396;2022-09-09T04:37:46;2.43;;;1.60;;
16270;SDS011;8243;49.048;8.396;2022-09-09T04:40:13;6.10;;;1.90;;
16270;SDS011;8243;49.048;8.396;2022-09-09T04:42:40;1.77;;;1.63;;
16270;SDS011;8243;49.048;8.396;2022-09-09T04:45:08;3.87;;;1.60;;
16270;SDS011;8243;49.048;8.396;2022-09-09T04:47:36;3.60;;;1.47;;
16270;SDS011;8243;49.048;8.396;2022-09-09T04:50:02;4.10;;;2.03;;
16270;SDS011;8243;49.048;8.396;2022-09-09T04:52:27;3.07;;;1.60;;
16270;SDS011;8243;49.048;8.396;2022-09-09T04:54:53;2.23;;;1.63;;
16270;SDS011;8243;49.048;8.396;2022-09-09T04:57:19;2.57;;;1.50;;
16270;SDS011;8243;49.048;8.396;2022-09-09T04:59:44;2.43;;;1.50;;
16270;SDS011;8243;49.048;8.396;2022-09-09T05:02:10;3.47;;;1.30;;
16270;SDS011;8243;49.048;8.396;2022-09-09T05:04:36;3.43;;;1.30;;
16270;SDS011;8243;49.048;8.396;2022-09-09T05:07:23;2.23;;;1.17;;
16270;SDS011;8243;49.048;8.396;2022-09-09T05:09:54;3.37;;;1.50;;
16270;SDS011;8243;49.048;8.396;2022-09-09T05:12:20;4.70;;;1.60;;
16270;SDS011;8243;49.048;8.396;2022-09-09T05:14:47;5.20;;;1.70;;
16270;SDS011;8243;49.048;8.396;2022-09-09T05:17:12;3.60;;;1.60;;
16270;SDS011;8243;49.048;8.396;2022-09-09T05:19:38;2.00;;;1.23;;
16270;SDS011;8243;49.048;8.396;2022-09-09T05:22:03;3.90;;;1.60;;
16270;SDS011;8243;49.048;8.396;2022-09-09T05:24:30;4.13;;;1.30;;
16270;SDS011;8243;49.048;8.396;2022-09-09T05:26:58;3.23;;;2.10;;
16270;SDS011;8243;49.048;8.396;2022-09-09T05:29:24;7.37;;;3.87;;
16270;SDS011;8243;49.048;8.396;2022-09-09T05:31:51;6.83;;;3.90;;
16270;SDS011;8243;49.048;8.396;2022-09-09T05:34:17;7.37;;;4.57;;
16270;SDS011;8243;49.048;8.396;2022-09-09T05:36:42;6.90;;;5.13;;
16270;SDS011;8243;49.048;8.396;2022-09-09T05:39:08;4.87;;;3.67;;
16270;SDS011;8243;49.048;8.396;2022-09-09T05:41:33;4.37;;;2.60;;
16270;SDS011;8243;49.048;8.396;2022-09-09T05:44:01;7.67;;;3.97;;
16270;SDS011;8243;49.048;8.396;2022-09-09T05:46:28;5.57;;;2.77;;
16270;SDS011;8243;49.048;8.396;2022-09-09T05:48:55;5.00;;;3.40;;
16270;SDS011;8243;49.048;8.396;2022-09-09T05:51:21;7.03;;;3.10;;
16270;SDS011;8243;49.048;8.396;2022-09-09T05:53:49;5.13;;;3.60;;
16270;SDS011;8243;49.048;8.396;2022-09-09T05:56:19;6.57;;;3.20;;
16270;SDS011;8243;49.048;8.396;2022-09-09T05:58:48;6.40;;;4.87;;
16270;SDS011;8243;49.048;8.396;2022-09-09T06:01:24;5.03;;;3.70;;
16270;SDS011;8243;49.048;8.396;2022-09-09T06:03:52;3.67;;;2.00;;
16270;SDS011;8243;49.048;8.396;2022-09-09T06:06:19;4.17;;;2.00;;
16270;SDS011;8243;49.048;8.396;2022-09-09T06:08:46;2.50;;;2.00;;
16270;SDS011;8243;49.048;8.396;2022-09-09T06:11:14;4.37;;;2.33;;
16270;SDS011;8243;49.048;8.396;2022-09-09T06:13:43;3.33;;;1.80;;
16270;SDS011;8243;49.048;8.396;2022-09-09T06:16:16;4.10;;;2.10;;
16270;SDS011;8243;49.048;8.396;2022-09-09T06:18:43;5.07;;;1.77;;
16270;SDS011;8243;49.048;8.396;2022-09-09T06:21:16;4.07;;;1.87;;
16270;SDS011;8243;49.048;8.396;2022-09-09T06:23:44;3.53;;;2.23;;
16270;SDS011;8243;49.048;8.396;2022-09-09T06:26:12;4.53;;;2.10;;
16270;SDS011;8243;49.048;8.396;2022-09-09T06:28:53;5.57;;;1.67;;
16270;SDS011;8243;49.048;8.396;2022-09-09T06:31:23;3.47;;;1.90;;
16270;SDS011;8243;49.048;8.396;2022-09-09T06:33:51;5.60;;;2.00;;
16270;SDS011;8243;49.048;8.396;2022-09-09T06:36:19;5.97;;;2.00;;
16270;SDS011;8243;49.048;8.396;2022-09-09T06:38:46;4.47;;;1.90;;
16270;SDS011;8243;49.048;8.396;2022-09-09T06:41:13;4.73;;;1.77;;
16270;SDS011;8243;49.048;8.396;2022-09-09T06:43:40;3.67;;;1.90;;
16270;SDS011;8243;49.048;8.396;2022-09-09T06:46:10;5.73;;;2.40;;
16270;SDS011;8243;49.048;8.396;2022-09-09T06:48:39;5.77;;;2.30;;
16270;SDS011;8243;49.048;8.396;2022-09-09T06:51:06;3.40;;;2.00;;
16270;SDS011;8243;49.048;8.396;2022-09-09T06:53:34;5.93;;;2.87;;
16270;SDS011;8243;49.048;8.396;2022-09-09T06:56:01;4.40;;;2.50;;
16270;SDS011;8243;49.048;8.396;2022-09-09T06:58:42;4.60;;;1.70;;
16270;SDS011;8243;49.048;8.396;2022-09-09T07:01:09;4.10;;;1.50;;
16270;SDS011;8243;49.048;8.396;2022-09-09T07:03:37;3.50;;;1.70;;
16270;SDS011;8243;49.048;8.396;2022-09-09T07:06:04;2.50;;;1.70;;
16270;SDS011;8243;49.048;8.396;2022-09-09T07:08:31;3.57;;;1.83;;
16270;SDS011;8243;49.048;8.396;2022-09-09T07:11:07;2.63;;;1.60;;
16270;SDS011;8243;49.048;8.396;2022-09-09T07:13:33;4.60;;;1.70;;
16270;SDS011;8243;49.048;8.396;2022-09-09T07:16:09;5.13;;;1.93;;
16270;SDS011;8243;49.048;8.396;2022-09-09T07:18:38;5.67;;;1.47;;
16270;SDS011;8243;49.048;8.396;2022-09-09T07:21:04;5.57;;;1.40;;
16270;SDS011;8243;49.048;8.396;2022-09-09T07:23:31;1.70;;;1.20;;
16270;SDS011;8243;49.048;8.396;2022-09-09T07:25:57;5.07;;;1.60;;
16270;SDS011;8243;49.048;8.396;2022-09-09T07:28:24;3.03;;;1.27;;
16270;SDS011;8243;49.048;8.396;2022-09-09T07:30:54;4.23;;;2.13;;
16270;SDS011;8243;49.048;8.396;2022-09-09T07:33:27;5.07;;;2.83;;
16270;SDS011;8243;49.048;8.396;2022-09-09T07:36:02;5.03;;;1.80;;
16270;SDS011;8243;49.048;8.396;2022-09-09T07:38:32;4.10;;;1.53;;
16270;SDS011;8243;49.048;8.396;2022-09-09T07:41:07;4.57;;;1.30;;
16270;SDS011;8243;49.048;8.396;2022-09-09T07:43:40;4.07;;;2.00;;
16270;SDS011;8243;49.048;8.396;2022-09-09T07:46:07;4.37;;;1.60;;
16270;SDS011;8243;49.048;8.396;2022-09-09T07:48:34;6.03;;;1.50;;
16270;SDS011;8243;49.048;8.396;2022-09-09T07:51:10;2.53;;;1.40;;
16270;SDS011;8243;49.048;8.396;2022-09-09T07:53:41;2.63;;;1.60;;
16270;SDS011;8243;49.048;8.396;2022-09-09T07:56:09;4.23;;;1.50;;
16270;SDS011;8243;49.048;8.396;2022-09-09T07:58:36;5.17;;;1.73;;
16270;SDS011;8243;49.048;8.396;2022-09-09T08:01:07;2.37;;;1.30;;
16270;SDS011;8243;49.048;8.396;2022-09-09T08:03:34;2.53;;;1.30;;
16270;SDS011;8243;49.048;8.396;2022-09-09T08:06:00;3.67;;;1.50;;
16270;SDS011;8243;49.048;8.396;2022-09-09T08:08:28;2.50;;;1.30;;
16270;SDS011;8243;49.048;8.396;2022-09-09T08:11:00;3.73;;;1.20;;
16270;SDS011;8243;49.048;8.396;2022-09-09T08:13:35;2.87;;;1.50;;
16270;SDS011;8243;49.048;8.396;2022-09-09T08:16:08;4.63;;;1.40;;
16270;SDS011;8243;49.048;8.396;2022-09-09T08:18:39;2.20;;;1.43;;
16270;SDS011;8243;49.048;8.396;2022-09-09T08:21:12;4.53;;;1.57;;
16270;SDS011;8243;49.048;8.396;2022-09-09T08:23:43;4.90;;;1.50;;
16270;SDS011;8243;49.048;8.396;2022-09-09T08:26:12;3.33;;;1.60;;
16270;SDS011;8243;49.048;8.396;2022-09-09T08:28:39;7.27;;;1.53;;
16270;SDS011;8243;49.048;8.396;2022-09-09T08:31:07;1.67;;;1.20;;
16270;SDS011;8243;49.048;8.396;2022-09-09T08:33:41;4.53;;;1.47;;
16270;SDS011;8243;49.048;8.396;2022-09-09T08:36:11;5.90;;;1.60;;
16270;SDS011;8243;49.048;8.396;2022-09-09T08:38:40;4.00;;;1.70;;
16270;SDS011;8243;49.048;8.396;2022-09-09T08:43:41;4.20;;;1.53;;
16270;SDS011;8243;49.048;8.396;2022-09-09T08:48:55;3.53;;;1.47;;
16270;SDS011;8243;49.048;8.396;2022-09-09T08:51:26;4.50;;;1.30;;
16270;SDS011;8243;49.048;8.396;2022-09-09T08:53:54;4.43;;;1.30;;
16270;SDS011;8243;49.048;8.396;2022-09-09T08:56:24;2.77;;;1.07;;
16270;SDS011;8243;49.048;8.396;2022-09-09T08:58:52;2.30;;;1.40;;
16270;SDS011;8243;49.048;8.396;2022-09-09T09:01:28;7.13;;;1.60;;
16270;SDS011;8243;49.048;8.396;2022-09-09T09:06:50;3.77;;;1.77;;
16270;SDS011;8243;49.048;8.396;2022-09-09T09:12:29;4.33;;;1.53;;
16270;SDS011;8243;49.048;8.396;2022-09-09T09:15:00;4.43;;;1.60;;
16270;SDS011;8243;49.048;8.396;2022-09-09T09:17:27;4.93;;;1.57;;
16270;SDS011;8243;49.048;8.396;2022-09-09T09:19:56;6.70;;;1.80;;
16270;SDS011;8243;49.048;8.396;2022-09-09T09:22:46;3.57;;;1.40;;
16270;SDS011;8243;49.048;8.396;2022-09-09T09:27:51;2.77;;;1.50;;
16270;SDS011;8243;49.048;8.396;2022-09-09T09:30:26;5.07;;;1.83;;
16270;SDS011;8243;49.048;8.396;2022-09-09T09:33:03;4.50;;;1.77;;
16270;SDS011;8243;49.048;8.396;2022-09-09T09:35:48;3.17;;;1.37;;
16270;SDS011;8243;49.048;8.396;2022-09-09T09:38:17;2.60;;;1.23;;
16270;SDS011;8243;49.048;8.396;2022-09-09T09:40:57;2.80;;;1.50;;
16270;SDS011;8243;49.048;8.396;2022-09-09T09:43:28;3.43;;;1.30;;
16270;SDS011;8243;49.048;8.396;2022-09-09T09:46:04;1.97;;;1.13;;
16270;SDS011;8243;49.048;8.396;2022-09-09T09:48:33;3.37;;;1.30;;
16270;SDS011;8243;49.048;8.396;2022-09-09T09:51:08;2.60;;;1.10;;
16270;SDS011;8243;49.048;8.396;2022-09-09T09:53:36;4.17;;;1.43;;
16270;SDS011;8243;49.048;8.396;2022-09-09T09:56:04;1.63;;;0.90;;
16270;SDS011;8243;49.048;8.396;2022-09-09T10:01:20;4.40;;;1.30;;
16270;SDS011;8243;49.048;8.396;2022-09-09T10:03:51;2.97;;;1.17;;
16270;SDS011;8243;49.048;8.396;2022-09-09T10:06:28;2.63;;;1.63;;
16270;SDS011;8243;49.048;8.396;2022-09-09T10:09:23;3.87;;;1.40;;
16270;SDS011;8243;49.048;8.396;2022-09-09T10:14:47;2.67;;;1.30;;
16270;SDS011;8243;49.048;8.396;2022-09-09T10:37:16;4.27;;;1.50;;
16270;SDS011;8243;49.048;8.396;2022-09-09T10:39:47;4.17;;;1.57;;
16270;SDS011;8243;49.048;8.396;2022-09-09T10:42:18;3.43;;;1.27;;
16270;SDS011;8243;49.048;8.396;2022-09-09T10:44:53;4.57;;;1.87;;
16270;SDS011;8243;49.048;8.396;2022-09-09T10:48:06;3.17;;;1.17;;
16270;SDS011;8243;49.048;8.396;2022-09-09T10:51:01;5.07;;;1.40;;
16270;SDS011;8243;49.048;8.396;2022-09-09T10:54:03;4.40;;;1.57;;
16270;SDS011;8243;49.048;8.396;2022-09-09T10:57:04;4.03;;;1.40;;
16270;SDS011;8243;49.048;8.396;2022-09-09T10:59:41;2.30;;;1.20;;
16270;SDS011;8243;49.048;8.396;2022-09-09T11:02:30;2.57;;;1.23;;
16270;SDS011;8243;49.048;8.396;2022-09-09T11:05:00;2.90;;;1.00;;
16270;SDS011;8243;49.048;8.396;2022-09-09T11:07:34;2.63;;;1.23;;
16270;SDS011;8243;49.048;8.396;2022-09-09T11:10:29;3.53;;;1.27;;
16270;SDS011;8243;49.048;8.396;2022-09-09T11:13:18;5.87;;;1.50;;
16270;SDS011;8243;49.048;8.396;2022-09-09T11:16:05;4.23;;;1.50;;
16270;SDS011;8243;49.048;8.396;2022-09-09T11:18:42;3.60;;;1.20;;
16270;SDS011;8243;49.048;8.396;2022-09-09T11:21:12;2.40;;;1.07;;
16270;SDS011;8243;49.048;8.396;2022-09-09T11:23:55;5.03;;;1.30;;
16270;SDS011;8243;49.048;8.396;2022-09-09T11:26:30;2.10;;;1.40;;
16270;SDS011;8243;49.048;8.396;2022-09-09T11:31:46;3.13;;;1.00;;
16270;SDS011;8243;49.048;8.396;2022-09-09T11:43:08;3.73;;;1.40;;
16270;SDS011;8243;49.048;8.396;2022-09-09T11:45:50;3.27;;;1.33;;
16270;SDS011;8243;49.048;8.396;2022-09-09T11:48:25;2.43;;;1.00;;
16270;SDS011;8243;49.048;8.396;2022-09-09T11:50:59;5.07;;;1.40;;
16270;SDS011;8243;49.048;8.396;2022-09-09T11:53:27;5.40;;;1.30;;
16270;SDS011;8243;49.048;8.396;2022-09-09T11:56:03;4.40;;;1.17;;
16270;SDS011;8243;49.048;8.396;2022-09-09T11:58:43;5.10;;;1.50;;
16270;SDS011;8243;49.048;8.396;2022-09-09T12:01:28;4.37;;;1.70;;
16270;SDS011;8243;49.048;8.396;2022-09-09T12:06:30;6.27;;;1.50;;
16270;SDS011;8243;49.048;8.396;2022-09-09T12:09:06;4.00;;;1.30;;
16270;SDS011;8243;49.048;8.396;2022-09-09T12:11:51;4.10;;;1.50;;
16270;SDS011;8243;49.048;8.396;2022-09-09T12:14:37;3.87;;;1.53;;
16270;SDS011;8243;49.048;8.396;2022-09-09T12:19:40;4.00;;;1.53;;
16270;SDS011;8243;49.048;8.396;2022-09-09T12:31:02;3.13;;;1.37;;
16270;SDS011;8243;49.048;8.396;2022-09-09T12:33:44;3.20;;;1.17;;
16270;SDS011;8243;49.048;8.396;2022-09-09T12:36:13;4.40;;;1.30;;
16270;SDS011;8243;49.048;8.396;2022-09-09T12:38:42;5.53;;;1.53;;
16270;SDS011;8243;49.048;8.396;2022-09-09T12:41:21;5.07;;;1.50;;
16270;SDS011;8243;49.048;8.396;2022-09-09T12:43:49;3.90;;;1.63;;
16270;SDS011;8243;49.048;8.396;2022-09-09T12:46:35;4.80;;;1.40;;
16270;SDS011;8243;49.048;8.396;2022-09-09T12:49:04;3.63;;;1.40;;
16270;SDS011;8243;49.048;8.396;2022-09-09T12:51:31;5.77;;;1.80;;
16270;SDS011;8243;49.048;8.396;2022-09-09T12:53:58;5.57;;;1.43;;
16270;SDS011;8243;49.048;8.396;2022-09-09T12:56:26;4.73;;;1.70;;
16270;SDS011;8243;49.048;8.396;2022-09-09T12:58:55;5.13;;;1.30;;
16270;SDS011;8243;49.048;8.396;2022-09-09T13:01:23;3.67;;;1.70;;
16270;SDS011;8243;49.048;8.396;2022-09-09T13:03:54;5.67;;;1.33;;
16270;SDS011;8243;49.048;8.396;2022-09-09T13:06:27;3.97;;;1.80;;
16270;SDS011;8243;49.048;8.396;2022-09-09T13:08:59;4.57;;;1.77;;
16270;SDS011;8243;49.048;8.396;2022-09-09T13:11:26;6.60;;;1.80;;
16270;SDS011;8243;49.048;8.396;2022-09-09T13:14:32;5.90;;;1.50;;
16270;SDS011;8243;49.048;8.396;2022-09-09T13:17:03;3.97;;;1.20;;
16270;SDS011;8243;49.048;8.396;2022-09-09T13:19:32;2.93;;;1.17;;
16270;SDS011;8243;49.048;8.396;2022-09-09T13:22:11;2.47;;;1.10;;
16270;SDS011;8243;49.048;8.396;2022-09-09T13:24:58;5.97;;;1.20;;
16270;SDS011;8243;49.048;8.396;2022-09-09T13:27:58;4.27;;;1.30;;
16270;SDS011;8243;49.048;8.396;2022-09-09T13:33:40;3.20;;;1.20;;
16270;SDS011;8243;49.048;8.396;2022-09-09T13:35:55;4.37;;;1.07;;
16270;SDS011;8243;49.048;8.396;2022-09-09T13:38:38;3.70;;;1.13;;
16270;SDS011;8243;49.048;8.396;2022-09-09T13:41:09;4.37;;;1.33;;
16270;SDS011;8243;49.048;8.396;2022-09-09T13:43:42;3.10;;;1.50;;
16270;SDS011;8243;49.048;8.396;2022-09-09T13:52:03;3.20;;;1.40;;
16270;SDS011;8243;49.048;8.396;2022-09-09T13:54:33;2.60;;;1.30;;
16270;SDS011;8243;49.048;8.396;2022-09-09T13:56:59;3.83;;;1.17;;
16270;SDS011;8243;49.048;8.396;2022-09-09T13:59:26;3.87;;;1.50;;
16270;SDS011;8243;49.048;8.396;2022-09-09T14:01:52;3.27;;;1.10;;
16270;SDS011;8243;49.048;8.396;2022-09-09T14:04:18;3.50;;;1.50;;
16270;SDS011;8243;49.048;8.396;2022-09-09T14:06:47;3.60;;;1.33;;
16270;SDS011;8243;49.048;8.396;2022-09-09T14:09:14;16.87;;;3.37;;
16270;SDS011;8243;49.048;8.396;2022-09-09T14:11:42;5.40;;;1.93;;
16270;SDS011;8243;49.048;8.396;2022-09-09T14:14:08;5.23;;;1.80;;
16270;SDS011;8243;49.048;8.396;2022-09-09T14:16:34;6.73;;;2.10;;
16270;SDS011;8243;49.048;8.396;2022-09-09T14:19:00;3.17;;;1.40;;
16270;SDS011;8243;49.048;8.396;2022-09-09T14:21:27;3.67;;;1.37;;
16270;SDS011;8243;49.048;8.396;2022-09-09T14:23:52;7.40;;;1.63;;
16270;SDS011;8243;49.048;8.396;2022-09-09T14:26:19;5.53;;;1.60;;
16270;SDS011;8243;49.048;8.396;2022-09-09T14:28:45;2.67;;;1.60;;
16270;SDS011;8243;49.048;8.396;2022-09-09T14:31:11;5.93;;;1.57;;
16270;SDS011;8243;49.048;8.396;2022-09-09T14:33:38;3.63;;;1.40;;
16270;SDS011;8243;49.048;8.396;2022-09-09T14:36:04;2.67;;;1.27;;
16270;SDS011;8243;49.048;8.396;2022-09-09T14:38:30;5.00;;;1.83;;
16270;SDS011;8243;49.048;8.396;2022-09-09T14:41:05;3.77;;;1.50;;
16270;SDS011;8243;49.048;8.396;2022-09-09T14:43:32;3.77;;;1.40;;
16270;SDS011;8243;49.048;8.396;2022-09-09T14:46:04;4.77;;;1.50;;
16270;SDS011;8243;49.048;8.396;2022-09-09T14:48:34;4.30;;;1.60;;
16270;SDS011;8243;49.048;8.396;2022-09-09T14:51:13;4.57;;;1.70;;
16270;SDS011;8243;49.048;8.396;2022-09-09T14:53:45;7.27;;;2.20;;
16270;SDS011;8243;49.048;8.396;2022-09-09T14:56:38;6.23;;;2.07;;
16270;SDS011;8243;49.048;8.396;2022-09-09T14:59:03;4.43;;;1.60;;
16270;SDS011;8243;49.048;8.396;2022-09-09T15:01:34;5.87;;;1.43;;
16270;SDS011;8243;49.048;8.396;2022-09-09T15:04:07;3.23;;;1.60;;
16270;SDS011;8243;49.048;8.396;2022-09-09T15:06:45;4.33;;;1.90;;
16270;SDS011;8243;49.048;8.396;2022-09-09T15:09:32;4.80;;;1.50;;
16270;SDS011;8243;49.048;8.396;2022-09-09T15:12:11;8.90;;;4.20;;
16270;SDS011;8243;49.048;8.396;2022-09-09T15:17:45;5.83;;;1.80;;
16270;SDS011;8243;49.048;8.396;2022-09-09T15:20:11;4.43;;;1.70;;
16270;SDS011;8243;49.048;8.396;2022-09-09T15:26:04;2.43;;;1.20;;
16270;SDS011;8243;49.048;8.396;2022-09-09T15:29:08;2.57;;;1.47;;
16270;SDS011;8243;49.048;8.396;2022-09-09T15:31:33;3.03;;;1.60;;
16270;SDS011;8243;49.048;8.396;2022-09-09T15:34:03;4.93;;;1.63;;
16270;SDS011;8243;49.048;8.396;2022-09-09T15:36:34;4.63;;;1.43;;
16270;SDS011;8243;49.048;8.396;2022-09-09T15:39:06;3.87;;;1.50;;
16270;SDS011;8243;49.048;8.396;2022-09-09T15:41:37;3.27;;;1.50;;
16270;SDS011;8243;49.048;8.396;2022-09-09T15:44:04;5.53;;;1.80;;
16270;SDS011;8243;49.048;8.396;2022-09-09T15:49:05;5.30;;;1.83;;
16270;SDS011;8243;49.048;8.396;2022-09-09T15:51:42;4.37;;;1.70;;
16270;SDS011;8243;49.048;8.396;2022-09-09T15:54:16;3.37;;;1.23;;
16270;SDS011;8243;49.048;8.396;2022-09-09T15:56:43;4.90;;;1.70;;
16270;SDS011;8243;49.048;8.396;2022-09-09T15:59:16;4.27;;;1.40;;
16270;SDS011;8243;49.048;8.396;2022-09-09T16:01:42;3.77;;;1.53;;
16270;SDS011;8243;49.048;8.396;2022-09-09T16:04:09;9.57;;;1.70;;
16270;SDS011;8243;49.048;8.396;2022-09-09T16:06:36;5.03;;;1.80;;
16270;SDS011;8243;49.048;8.396;2022-09-09T16:09:03;8.03;;;1.60;;
16270;SDS011;8243;49.048;8.396;2022-09-09T16:11:31;6.27;;;1.77;;
16270;SDS011;8243;49.048;8.396;2022-09-09T16:13:58;4.47;;;1.53;;
16270;SDS011;8243;49.048;8.396;2022-09-09T16:16:25;8.77;;;1.97;;
16270;SDS011;8243;49.048;8.396;2022-09-09T16:18:53;5.17;;;1.30;;
16270;SDS011;8243;49.048;8.396;2022-09-09T16:21:24;6.17;;;1.27;;
16270;SDS011;8243;49.048;8.396;2022-09-09T16:24:00;3.33;;;1.17;;
16270;SDS011;8243;49.048;8.396;2022-09-09T16:26:29;2.67;;;1.30;;
16270;SDS011;8243;49.048;8.396;2022-09-09T16:28:56;2.23;;;1.30;;
16270;SDS011;8243;49.048;8.396;2022-09-09T16:31:24;2.03;;;1.30;;
16270;SDS011;8243;49.048;8.396;2022-09-09T16:33:53;3.17;;;1.30;;
16270;SDS011;8243;49.048;8.396;2022-09-09T16:36:20;5.90;;;1.27;;
16270;SDS011;8243;49.048;8.396;2022-09-09T16:38:53;6.00;;;2.10;;
16270;SDS011;8243;49.048;8.396;2022-09-09T16:41:20;4.23;;;1.80;;
16270;SDS011;8243;49.048;8.396;2022-09-09T16:43:47;4.33;;;1.83;;
16270;SDS011;8243;49.048;8.396;2022-09-09T16:46:18;3.57;;;1.30;;
16270;SDS011;8243;49.048;8.396;2022-09-09T16:48:46;2.50;;;1.37;;
16270;SDS011;8243;49.048;8.396;2022-09-09T16:53:49;3.97;;;1.80;;
16270;SDS011;8243;49.048;8.396;2022-09-09T16:56:17;3.17;;;1.70;;
16270;SDS011;8243;49.048;8.396;2022-09-09T16:58:48;3.07;;;1.60;;
16270;SDS011;8243;49.048;8.396;2022-09-09T17:01:25;6.07;;;1.47;;
16270;SDS011;8243;49.048;8.396;2022-09-09T17:03:53;5.17;;;1.63;;
16270;SDS011;8243;49.048;8.396;2022-09-09T17:06:23;4.80;;;1.70;;
16270;SDS011;8243;49.048;8.396;2022-09-09T17:08:59;8.33;;;1.70;;
16270;SDS011;8243;49.048;8.396;2022-09-09T17:11:27;3.60;;;1.77;;
16270;SDS011;8243;49.048;8.396;2022-09-09T17:13:54;4.17;;;1.87;;
16270;SDS011;8243;49.048;8.396;2022-09-09T17:16:22;4.07;;;1.57;;
16270;SDS011;8243;49.048;8.396;2022-09-09T17:18:49;5.13;;;1.63;;
16270;SDS011;8243;49.048;8.396;2022-09-09T17:21:16;6.70;;;1.60;;
16270;SDS011;8243;49.048;8.396;2022-09-09T17:23:43;4.97;;;1.47;;
16270;SDS011;8243;49.048;8.396;2022-09-09T17:26:12;7.80;;;1.60;;
16270;SDS011;8243;49.048;8.396;2022-09-09T17:28:40;3.27;;;1.47;;
16270;SDS011;8243;49.048;8.396;2022-09-09T17:31:07;5.43;;;1.50;;